Енюково

Карта отелей и гостиниц, располагающихся рядом с аэропортом Енюково :

Енюково Вологодская область 59° 18' 57.3588" N, 37° 59' 8.88" E
Енюково Вологодская область 59° 18' 57.3588" N, 37° 59' 8.88" E
Код аэродрома ИКАО
H135
Код аэродрома RU
Х135
Координаты
N59.31593° E037.98580°
Превышение над уровнем моря
145
Основная полоса
Курс магнитный
Длина основной ВПП
50
Ширина основной ВПП
50
Покрытие основной ВПП
Нетвёрдое (грунт)
Освещение ВПП
Нет
Тип: 
Вертодром
Класс аэродрома: 
Принадлежность: 
ГА
Статус: 
Недействующий
Сайт: 
E-mail аэродрома: 
Страна: 
Россия
Регион: 
Вологодская область
Город: 
Дополнительная информация: 
Оператор: нет данных.

Найти трансфер

С помощью этой формы Вы можете найти трансфер из аэропорта Енюково в город, аэропорт или вокзал:

Карта места

Javascript is required to view this map.

Погода в аэропортах:

Авиационная погода в Якутске

Регион: 
Погода METAR: 
UEEE 241700Z 22002MPS 9999 -SHSN SCT040CB 00/M01 Q1003 R23L/150156 NOSIG RMK QFE743
Время наблюдения
2021-10-24T17:00:00Z
Температура C
0.0
Точка росы
-1.0
Направление ветра
220
Скорость ветра (узлы)
4
Метео видимость
6.21
Явления погоды
-SHSN
Условия полета
VFR
Аэропорт подробнее: 

Авиационная погода в Мирном

Регион: 
Погода METAR: 
UERR 241700Z 21003MPS 9999 -SHSN FEW009 OVC020CB M00/M01 Q0997 R25/591032 NOSIG RMK QFE717/0956
Время наблюдения
2021-10-24T17:00:00Z
Температура C
0.0
Точка росы
-1.0
Направление ветра
210
Скорость ветра (узлы)
6
Метео видимость
6.21
Явления погоды
-SHSN
Условия полета
MVFR
Аэропорт подробнее: 

Авиационная погода в Рощино

Регион: 
Погода METAR: 
USTR 241500Z 14006MPS 3200 -SHRA BR SCT007 OVC015CB 06/06 Q1004 R21/290060 R30/290060 TEMPO 3100 -SHRA BR BKN003 BKN016CB
Время наблюдения
2021-10-24T15:00:00Z
Температура C
6.0
Точка росы
6.0
Направление ветра
140
Скорость ветра (узлы)
12
Метео видимость
1.99
Явления погоды
-SHRA BR
Условия полета
IFR
Аэропорт подробнее: 

Авиационная погода в Москва - Внуково

Погода METAR: 
UUWW 241700Z 33006MPS 9000 -SHSN BKN031CB 01/M04 Q1022 RMK WS R24 R24/290050 TEMPO 1500 SHSN BKN012CB
Время наблюдения
2021-10-24T17:00:00Z
Температура C
1.0
Точка росы
-4.0
Направление ветра
330
Скорость ветра (узлы)
12
Метео видимость
5.59
Явления погоды
-SHSN
Условия полета
VFR
Аэропорт подробнее: